Time;durP1;ratioP1;P1;durP2;ratioP2;P2;SDS_P1;SDS_P2;PMS_P1;PMS_P2;Temp;Humidity;BMP_temperature;BMP_pressure;BME280_temperature;BME280_humidity;BME280_pressure;Samples;Min_cycle;Max_cycle;Signal;HPM_P1;HPM_P2
2021/03/31 00:00:34;;;;;;;1999.90;999.90;;;;;;;13.36;46.25;-18264.09;5037834;28;20617;-30
2021/03/31 00:03:22;;;;;;;1999.90;999.90;;;;;;;13.20;46.92;-18259.97;5036735;28;20299;-30
2021/03/31 00:06:09;;;;;;;1999.90;999.90;;;;;;;13.21;47.48;-18260.22;5036441;28;20226;-29
2021/03/31 00:08:55;;;;;;;1999.90;999.90;;;;;;;13.09;48.00;-18257.16;5036403;28;20207;-29
2021/03/31 00:11:42;;;;;;;1999.90;999.90;;;;;;;13.17;48.18;-18259.03;5037693;28;20356;-29
2021/03/31 00:14:28;;;;;;;1999.90;999.90;;;;;;;13.29;47.40;-18262.38;5038528;28;20205;-30
2021/03/31 00:17:15;;;;;;;1999.90;999.90;;;;;;;13.29;47.31;-18262.38;5036589;28;20221;-29
2021/03/31 00:20:04;;;;;;;1999.90;999.90;;;;;;;13.19;48.19;-18259.56;5042032;28;20202;-29
2021/03/31 00:22:54;;;;;;;1999.90;999.90;;;;;;;13.08;48.56;-18256.75;5042366;28;20261;-29
2021/03/31 00:25:42;;;;;;;1999.90;999.90;;;;;;;13.07;49.14;-18256.63;5036108;28;20218;-30
2021/03/31 00:28:28;;;;;;;1999.90;999.90;;;;;;;13.07;48.90;-18256.63;5035935;28;20352;-29
2021/03/31 00:31:15;;;;;;;1999.90;999.90;;;;;;;13.08;48.59;-18256.91;5037245;28;20296;-29
2021/03/31 00:34:01;;;;;;;1999.90;999.90;;;;;;;13.18;48.16;-18259.31;5041589;28;20289;-29
2021/03/31 00:36:50;;;;;;;1999.90;999.90;;;;;;;13.24;48.81;-18261.03;5040067;28;20201;-29
2021/03/31 00:39:39;;;;;;;1999.90;999.90;;;;;;;13.52;48.22;-18268.25;5039872;28;20250;-29
2021/03/31 00:42:25;;;;;;;1999.90;999.90;;;;;;;13.70;47.44;-18273.16;5040152;28;20206;-29
2021/03/31 00:45:16;;;;;;;1999.90;999.90;;;;;;;13.77;47.23;-18275.03;5039456;28;20612;-29
2021/03/31 00:48:02;;;;;;;1999.90;999.90;;;;;;;13.87;47.02;-18277.44;5039408;28;20231;-29
2021/03/31 00:50:53;;;;;;;1999.90;999.90;;;;;;;13.93;47.40;-18279.03;5038918;28;20496;-30
2021/03/31 00:53:43;;;;;;;1999.90;999.90;;;;;;;13.99;47.14;-18280.78;5041053;28;20204;-29
2021/03/31 00:56:33;;;;;;;1999.90;999.90;;;;;;;14.09;47.43;-18283.44;5039554;28;20194;-30
2021/03/31 00:59:19;;;;;;;1999.90;999.90;;;;;;;14.08;47.35;-18283.16;5039214;28;20208;-30
2021/03/31 01:02:05;;;;;;;1999.90;999.90;;;;;;;13.96;47.66;-18279.97;5039932;28;20215;-29
2021/03/31 01:04:51;;;;;;;1999.90;999.90;;;;;;;13.99;47.84;-18280.78;5039301;28;20208;-30
2021/03/31 01:07:40;;;;;;;1999.90;999.90;;;;;;;13.80;48.80;-18275.84;5038946;28;20235;-29
2021/03/31 01:10:28;;;;;;;1999.90;999.90;;;;;;;13.66;50.13;-18272.09;5038870;28;20202;-29
2021/03/31 01:13:34;;;;;;;1999.90;999.90;;;;;;;13.51;50.45;-18267.97;5038953;28;20504;-29
2021/03/31 01:16:35;;;;;;;1999.90;999.90;;;;;;;13.33;51.24;-18263.44;5039945;28;20201;-30
2021/03/31 01:19:45;;;;;;;1999.90;999.90;;;;;;;13.28;51.93;-18262.09;5038730;28;20207;-29
2021/03/31 01:23:13;;;;;;;1999.90;999.90;;;;;;;13.31;51.01;-18262.78;5038222;28;20200;-29
2021/03/31 01:26:06;;;;;;;1999.90;999.90;;;;;;;13.29;51.53;-18262.38;5043207;28;20205;-29
2021/03/31 01:29:18;;;;;;;1999.90;999.90;;;;;;;13.42;50.99;-18265.84;5041260;28;20264;-29
2021/03/31 01:32:21;;;;;;;1999.90;999.90;;;;;;;12.89;53.60;-18251.69;5038548;28;20280;-30
2021/03/31 01:35:18;;;;;;;1999.90;999.90;;;;;;;12.56;56.68;-18243.00;5037972;28;20233;-29
2021/03/31 01:38:10;;;;;;;1999.90;999.90;;;;;;;12.10;59.21;-18230.88;5038184;28;20613;-29
2021/03/31 01:41:00;;;;;;;1999.90;999.90;;;;;;;11.88;60.71;-18225.13;5038539;28;20217;-29
2021/03/31 01:43:50;;;;;;;1999.90;999.90;;;;;;;11.76;62.12;-18221.91;5037530;28;20201;-29
2021/03/31 01:46:37;;;;;;;1999.90;999.90;;;;;;;11.84;61.41;-18224.06;5037565;28;20228;-29
2021/03/31 01:49:27;;;;;;;1999.90;999.90;;;;;;;11.87;60.94;-18225.00;5037829;28;20213;-29
2021/03/31 01:52:16;;;;;;;1999.90;999.90;;;;;;;12.00;59.27;-18228.47;5042422;28;20609;-29
2021/03/31 01:55:06;;;;;;;1999.90;999.90;;;;;;;11.78;60.92;-18222.47;5038212;28;20209;-29
2021/03/31 01:58:01;;;;;;;1999.90;999.90;;;;;;;11.84;59.52;-18224.19;5038180;28;20197;-29
2021/03/31 02:00:49;;;;;;;1999.90;999.90;;;;;;;11.72;61.12;-18220.97;5037971;28;20307;-29
2021/03/31 02:03:39;;;;;;;1999.90;999.90;;;;;;;12.00;59.12;-18228.31;5038340;28;20255;-29
2021/03/31 02:06:29;;;;;;;1999.90;999.90;;;;;;;12.03;58.63;-18229.13;5037265;28;20307;-29
2021/03/31 02:09:16;;;;;;;1999.90;999.90;;;;;;;12.43;55.51;-18239.69;5037588;28;20288;-30
2021/03/31 02:12:04;;;;;;;1999.90;999.90;;;;;;;12.67;53.53;-18246.09;5037378;28;20197;-29
2021/03/31 02:14:54;;;;;;;1999.90;999.90;;;;;;;12.93;52.50;-18252.75;5038066;28;20201;-29
2021/03/31 02:17:41;;;;;;;1999.90;999.90;;;;;;;13.02;51.90;-18255.16;5038705;28;20201;-29
2021/03/31 02:20:27;;;;;;;1999.90;999.90;;;;;;;13.03;51.17;-18255.56;5038875;28;20202;-29
2021/03/31 02:23:14;;;;;;;1999.90;999.90;;;;;;;13.09;51.13;-18257.16;5038119;28;20208;-29
2021/03/31 02:26:02;;;;;;;1999.90;999.90;;;;;;;13.09;50.49;-18257.16;5037048;28;20577;-29
2021/03/31 02:28:49;;;;;;;1999.90;999.90;;;;;;;13.03;50.85;-18255.44;5037012;28;20493;-29
2021/03/31 02:31:39;;;;;;;1999.90;999.90;;;;;;;12.97;51.85;-18253.97;5037898;28;20201;-29
2021/03/31 02:34:31;;;;;;;1999.90;999.90;;;;;;;12.89;51.63;-18251.81;5037257;28;20233;-29
2021/03/31 02:37:18;;;;;;;1999.90;999.90;;;;;;;12.88;51.94;-18251.41;5037204;28;20202;-29
2021/03/31 02:40:08;;;;;;;1999.90;999.90;;;;;;;12.90;51.57;-18251.97;5037415;28;20205;-29
2021/03/31 02:42:57;;;;;;;1999.90;999.90;;;;;;;12.76;52.43;-18248.34;5038194;28;20252;-29
2021/03/31 02:45:47;;;;;;;1999.90;999.90;;;;;;;12.75;51.87;-18248.22;5039286;28;20280;-29
2021/03/31 02:48:38;;;;;;;1999.90;999.90;;;;;;;12.91;51.83;-18252.22;5041779;28;20267;-29
2021/03/31 02:51:24;;;;;;;1999.90;999.90;;;;;;;12.99;50.86;-18254.34;5037296;28;20208;-29
2021/03/31 02:54:11;;;;;;;1999.90;999.90;;;;;;;12.86;52.03;-18250.88;5036777;28;20299;-30
2021/03/31 02:56:57;;;;;;;1999.90;999.90;;;;;;;12.74;53.06;-18247.81;5037351;28;20217;-29
2021/03/31 02:59:44;;;;;;;1999.90;999.90;;;;;;;12.82;52.45;-18249.81;5037177;28;20631;-30
2021/03/31 03:02:30;;;;;;;1999.90;999.90;;;;;;;12.67;54.02;-18245.94;5037079;28;20663;-29
2021/03/31 03:05:18;;;;;;;1999.90;999.90;;;;;;;12.84;52.98;-18250.34;5037231;28;20204;-29
2021/03/31 03:08:06;;;;;;;1999.90;999.90;;;;;;;12.85;52.77;-18250.75;5036836;28;20232;-30
2021/03/31 03:10:57;;;;;;;1999.90;999.90;;;;;;;12.68;54.67;-18246.34;5037830;28;20612;-30
2021/03/31 03:13:46;;;;;;;1999.90;999.90;;;;;;;12.05;57.39;-18229.66;5037783;28;20205;-30
2021/03/31 03:16:33;;;;;;;1999.90;999.90;;;;;;;11.87;59.39;-18224.84;5036672;28;20291;-29
2021/03/31 03:19:19;;;;;;;1999.90;999.90;;;;;;;12.01;58.64;-18228.72;5037255;28;20204;-30
2021/03/31 03:22:07;;;;;;;1999.90;999.90;;;;;;;12.03;59.94;-18229.25;5038626;28;20287;-30
2021/03/31 03:24:54;;;;;;;1999.90;999.90;;;;;;;12.32;55.41;-18236.75;5036797;28;20445;-29
2021/03/31 03:27:42;;;;;;;1999.90;999.90;;;;;;;12.22;56.35;-18234.06;5036336;28;20600;-29
2021/03/31 03:30:28;;;;;;;1999.90;999.90;;;;;;;12.16;58.40;-18232.47;5038988;28;20196;-30
2021/03/31 03:33:33;;;;;;;1999.90;999.90;;;;;;;12.15;57.15;-18232.34;5035733;28;20279;-29
2021/03/31 03:36:20;;;;;;;1999.90;999.90;;;;;;;12.12;57.15;-18231.53;5036462;28;20256;-30
2021/03/31 03:39:06;;;;;;;1999.90;999.90;;;;;;;12.01;56.72;-18228.72;5036697;28;20292;-29
2021/03/31 03:42:01;;;;;;;1999.90;999.90;;;;;;;11.91;57.66;-18226.06;5040180;28;20304;-29
2021/03/31 03:44:50;;;;;;;1999.90;999.90;;;;;;;11.78;59.38;-18222.59;5036200;28;20201;-30
2021/03/31 03:47:39;;;;;;;1999.90;999.90;;;;;;;11.74;62.65;-18221.66;5036623;28;20460;-29
2021/03/31 03:50:29;;;;;;;1999.90;999.90;;;;;;;11.60;62.37;-18217.91;5042405;28;20201;-29
2021/03/31 03:53:16;;;;;;;1999.90;999.90;;;;;;;11.32;64.54;-18210.56;5037201;28;20269;-30
2021/03/31 03:56:08;;;;;;;1999.90;999.90;;;;;;;11.40;65.63;-18212.69;5036992;28;20482;-30
2021/03/31 03:58:54;;;;;;;1999.90;999.90;;;;;;;11.32;67.08;-18210.56;5040768;28;20292;-30
2021/03/31 04:01:40;;;;;;;1999.90;999.90;;;;;;;11.52;65.18;-18215.63;5036285;28;20481;-29
2021/03/31 04:04:30;;;;;;;1999.90;999.90;;;;;;;11.48;66.41;-18214.56;5036291;28;20197;-30
2021/03/31 04:07:17;;;;;;;1999.90;999.90;;;;;;;10.99;68.09;-18201.88;5048248;28;20718;-30
2021/03/31 04:10:06;;;;;;;1999.90;999.90;;;;;;;11.00;71.02;-18202.13;5041063;28;20205;-30
2021/03/31 04:12:54;;;;;;;1999.90;999.90;;;;;;;10.97;71.18;-18201.22;5040182;28;20206;-30
2021/03/31 04:15:46;;;;;;;1999.90;999.90;;;;;;;10.74;72.44;-18195.19;5041045;28;20199;-30
2021/03/31 04:18:38;;;;;;;1999.90;999.90;;;;;;;9.93;78.96;-18173.78;5041057;28;20611;-30
2021/03/31 04:21:27;;;;;;;1999.90;999.90;;;;;;;9.73;80.36;-18168.56;5040436;28;20595;-30
2021/03/31 04:24:18;;;;;;;1999.90;999.90;;;;;;;9.81;80.63;-18170.56;5045262;28;20526;-30
2021/03/31 04:27:06;;;;;;;1999.90;999.90;;;;;;;10.00;81.64;-18175.78;5039718;28;20228;-29
2021/03/31 04:29:54;;;;;;;1999.90;999.90;;;;;;;9.91;80.11;-18173.25;5039624;28;20203;-29
2021/03/31 04:32:45;;;;;;;1999.90;999.90;;;;;;;9.90;82.39;-18172.97;5040195;28;20358;-29
2021/03/31 04:35:30;;;;;;;1999.90;999.90;;;;;;;10.06;79.73;-18177.13;5039282;28;20234;-29
2021/03/31 04:38:17;;;;;;;1999.90;999.90;;;;;;;9.85;81.39;-18171.66;5039677;28;20501;-29
2021/03/31 04:41:05;;;;;;;1999.90;999.90;;;;;;;9.71;81.06;-18168.03;5042216;28;20608;-29
2021/03/31 04:43:51;;;;;;;1999.90;999.90;;;;;;;9.68;81.29;-18167.22;5039751;28;20197;-29
2021/03/31 04:46:39;;;;;;;1999.90;999.90;;;;;;;9.61;81.70;-18165.34;5039341;28;20216;-29
2021/03/31 04:49:25;;;;;;;1999.90;999.90;;;;;;;9.59;81.69;-18164.97;5039029;28;20446;-29
2021/03/31 04:52:13;;;;;;;1999.90;999.90;;;;;;;9.64;81.99;-18166.28;5039101;28;20193;-29
2021/03/31 04:55:02;;;;;;;1999.90;999.90;;;;;;;9.61;82.96;-18165.34;5038968;28;20309;-29
2021/03/31 04:57:52;;;;;;;1999.90;999.90;;;;;;;9.71;80.55;-18168.03;5038644;28;20207;-29
2021/03/31 05:00:38;;;;;;;1999.90;999.90;;;;;;;9.94;80.14;-18174.06;5048440;28;20197;-29
2021/03/31 05:03:27;;;;;;;1999.90;999.90;;;;;;;9.76;79.59;-18169.25;5039668;28;20600;-29
2021/03/31 05:06:14;;;;;;;1999.90;999.90;;;;;;;9.66;79.98;-18166.84;5039199;28;20480;-29
2021/03/31 05:09:09;;;;;;;1999.90;999.90;;;;;;;9.68;80.73;-18167.22;5039535;28;20186;-29
2021/03/31 05:11:55;;;;;;;1999.90;999.90;;;;;;;9.51;81.57;-18162.81;5040143;28;20206;-29
2021/03/31 05:14:44;;;;;;;1999.90;999.90;;;;;;;9.49;81.69;-18162.28;5038640;28;20202;-29
2021/03/31 05:17:31;;;;;;;1999.90;999.90;;;;;;;9.44;82.07;-18160.81;5038209;28;20493;-29
2021/03/31 05:20:19;;;;;;;1999.90;999.90;;;;;;;9.60;80.45;-18165.09;5039177;28;20213;-29
2021/03/31 05:23:14;;;;;;;1999.90;999.90;;;;;;;9.65;80.42;-18166.56;5038205;28;20614;-30
2021/03/31 05:26:00;;;;;;;1999.90;999.90;;;;;;;9.90;79.61;-18172.97;5041203;28;20198;-30
2021/03/31 05:28:52;;;;;;;1999.90;999.90;;;;;;;10.21;77.08;-18181.28;5039900;28;20493;-30
2021/03/31 05:31:41;;;;;;;1999.90;999.90;;;;;;;10.52;75.59;-18189.44;5039227;28;20523;-30
2021/03/31 05:34:27;;;;;;;1999.90;999.90;;;;;;;10.65;73.56;-18192.91;5038179;28;20295;-30
2021/03/31 05:37:14;;;;;;;1999.90;999.90;;;;;;;10.96;72.33;-18200.94;5038236;28;20703;-30
2021/03/31 05:40:07;;;;;;;1999.90;999.90;;;;;;;11.10;70.65;-18204.69;5038265;28;20735;-29
2021/03/31 05:42:57;;;;;;;1999.90;999.90;;;;;;;11.28;72.54;-18209.50;5038659;28;20356;-30
2021/03/31 05:45:45;;;;;;;1999.90;999.90;;;;;;;11.35;70.93;-18211.38;5038860;28;20197;-30
2021/03/31 05:48:32;;;;;;;1999.90;999.90;;;;;;;11.60;68.45;-18217.78;5038823;28;20649;-30
2021/03/31 05:51:21;;;;;;;1999.90;999.90;;;;;;;11.23;69.66;-18208.16;5039739;28;20668;-30
2021/03/31 05:54:09;;;;;;;1999.90;999.90;;;;;;;11.28;69.30;-18209.34;5039590;28;20201;-30
2021/03/31 05:56:55;;;;;;;1999.90;999.90;;;;;;;11.61;66.41;-18218.03;5039966;28;20221;-30
2021/03/31 05:59:42;;;;;;;1999.90;999.90;;;;;;;11.99;65.82;-18228.06;5041459;28;20205;-30
2021/03/31 06:02:29;;;;;;;1999.90;999.90;;;;;;;12.79;60.97;-18249.03;5053214;28;20197;-30
2021/03/31 06:05:17;;;;;;;1999.90;999.90;;;;;;;12.93;59.46;-18252.75;5042594;28;20222;-30
2021/03/31 06:08:08;;;;;;;1999.90;999.90;;;;;;;13.32;58.82;-18263.03;5033817;28;20294;-30
2021/03/31 06:11:00;;;;;;;1999.90;999.90;;;;;;;14.20;57.07;-18286.22;5030659;28;20264;-30
2021/03/31 06:13:51;;;;;;;1999.90;999.90;;;;;;;14.24;56.22;-18287.31;5030308;28;20200;-30
2021/03/31 06:16:44;;;;;;;1999.90;999.90;;;;;;;14.25;55.68;-18287.44;5029914;28;20220;-30
2021/03/31 06:19:30;;;;;;;1999.90;999.90;;;;;;;14.66;56.28;-18298.38;5020419;28;20260;-30
2021/03/31 06:22:26;;;;;;;1999.90;999.90;;;;;;;14.64;55.44;-18297.84;5018763;28;20300;-29
2021/03/31 06:25:17;;;;;;;1999.90;999.90;;;;;;;15.39;54.44;-18317.53;5018600;28;20201;-28
2021/03/31 06:28:03;;;;;;;1999.90;999.90;;;;;;;15.70;54.21;-18325.53;5017728;28;20197;-29
2021/03/31 06:30:52;;;;;;;1999.90;999.90;;;;;;;14.76;55.41;-18301.03;5018307;28;20218;-29
2021/03/31 06:33:40;;;;;;;1999.90;999.90;;;;;;;15.95;54.05;-18332.06;5018140;28;20432;-29
2021/03/31 06:36:45;;;;;;;1999.90;999.90;;;;;;;16.93;47.88;-18357.88;5017842;28;20486;-29
2021/03/31 06:39:34;;;;;;;1999.90;999.90;;;;;;;17.38;45.31;-18369.69;5019017;28;20213;-29
2021/03/31 06:42:35;;;;;;;1999.90;999.90;;;;;;;18.43;42.36;-18397.06;5017882;28;20281;-29
2021/03/31 06:45:38;;;;;;;1999.90;999.90;;;;;;;20.96;38.43;-18463.38;5017918;28;20252;-29
2021/03/31 06:48:31;;;;;;;1999.90;999.90;;;;;;;22.26;35.49;-18497.28;5017571;28;20289;-29
2021/03/31 06:51:27;;;;;;;1999.90;999.90;;;;;;;22.69;34.24;-18508.50;5017403;28;20210;-29
2021/03/31 06:54:18;;;;;;;1999.90;999.90;;;;;;;22.92;33.26;-18514.47;5017561;28;20198;-29
2021/03/31 06:57:06;;;;;;;1999.90;999.90;;;;;;;22.85;33.71;-18512.47;5017652;28;20221;-29
2021/03/31 07:00:16;;;;;;;1999.90;999.90;;;;;;;23.10;32.27;-18518.97;5016930;28;20206;-29
2021/03/31 07:03:09;;;;;;;1999.90;999.90;;;;;;;23.67;32.88;-18533.91;5019622;28;20222;-29
2021/03/31 07:05:55;;;;;;;1999.90;999.90;;;;;;;24.85;30.63;-18564.66;5023495;28;20193;-29
2021/03/31 07:08:41;;;;;;;1999.90;999.90;;;;;;;22.71;32.83;-18508.91;5020377;28;20266;-29
2021/03/31 07:11:41;;;;;;;1999.90;999.90;;;;;;;23.64;32.02;-18533.22;5018211;28;20201;-29
2021/03/31 07:14:33;;;;;;;1999.90;999.90;;;;;;;23.12;33.38;-18519.50;5019972;28;20206;-29
2021/03/31 07:17:22;;;;;;;1999.90;999.90;;;;;;;21.46;36.34;-18476.22;5017827;28;20269;-29
2021/03/31 07:20:13;;;;;;;1999.90;999.90;;;;;;;22.19;35.17;-18495.28;5017116;28;20202;-29
2021/03/31 07:23:07;;;;;;;1999.90;999.90;;;;;;;22.17;33.86;-18494.91;5019053;28;20499;-29
2021/03/31 07:25:58;;;;;;;1999.90;999.90;;;;;;;24.29;32.53;-18550.13;5036689;28;20549;-29
2021/03/31 07:28:47;;;;;;;1999.90;999.90;;;;;;;23.20;34.36;-18521.59;5037170;28;20203;-29
2021/03/31 07:31:37;;;;;;;1999.90;999.90;;;;;;;23.79;32.27;-18536.94;5036263;28;20217;-29
2021/03/31 07:34:29;;;;;;;1999.90;999.90;;;;;;;24.43;33.69;-18553.69;5035623;28;20647;-29
2021/03/31 07:37:18;;;;;;;1999.90;999.90;;;;;;;25.55;31.12;-18582.72;5017838;28;20272;-29
2021/03/31 07:40:08;;;;;;;1999.90;999.90;;;;;;;24.18;32.98;-18547.22;5021782;28;20208;-29
2021/03/31 07:42:57;;;;;;;1999.90;999.90;;;;;;;23.80;32.80;-18537.31;5039392;28;20205;-29
2021/03/31 07:45:48;;;;;;;1999.90;999.90;;;;;;;22.63;33.34;-18506.94;5031777;28;20317;-29
2021/03/31 07:48:37;;;;;;;1999.90;999.90;;;;;;;20.89;36.08;-18461.41;5021107;28;20341;-29
2021/03/31 07:51:28;;;;;;;1999.90;999.90;;;;;;;21.44;35.67;-18475.84;5023169;28;20233;-28
2021/03/31 07:54:15;;;;;;;1999.90;999.90;;;;;;;22.75;34.58;-18509.97;5021292;28;20606;-28
2021/03/31 07:57:26;;;;;;;1999.90;999.90;;;;;;;22.09;34.17;-18492.78;5020582;28;20552;-29
2021/03/31 08:00:13;;;;;;;1999.90;999.90;;;;;;;24.16;31.99;-18546.69;5020538;28;20249;-29
2021/03/31 08:03:04;;;;;;;1999.90;999.90;;;;;;;22.56;32.81;-18504.94;5025013;28;20206;-29
2021/03/31 08:06:19;;;;;;;1999.90;999.90;;;;;;;22.85;33.10;-18512.47;5028122;28;20310;-29
2021/03/31 08:09:21;;;;;;;1999.90;999.90;;;;;;;23.55;31.97;-18530.84;5023287;28;20209;-29
2021/03/31 08:12:08;;;;;;;1999.90;999.90;;;;;;;24.43;32.84;-18553.69;5020864;28;20735;-29
2021/03/31 08:14:54;;;;;;;1999.90;999.90;;;;;;;23.57;32.28;-18531.38;5034337;28;20209;-29
2021/03/31 08:18:01;;;;;;;1999.90;999.90;;;;;;;22.90;32.48;-18513.94;5027770;28;20573;-29
2021/03/31 08:20:49;;;;;;;1999.90;999.90;;;;;;;23.12;33.14;-18519.50;5020958;28;20214;-29
2021/03/31 08:23:48;;;;;;;1999.90;999.90;;;;;;;23.11;32.79;-18519.22;5020199;28;20204;-29
2021/03/31 08:26:42;;;;;;;1999.90;999.90;;;;;;;25.24;32.64;-18574.69;5020013;28;20610;-29
2021/03/31 08:29:52;;;;;;;1999.90;999.90;;;;;;;25.75;31.56;-18588.00;5019606;28;20201;-29
2021/03/31 08:32:46;;;;;;;1999.90;999.90;;;;;;;26.07;31.62;-18596.44;5018673;28;20210;-29
2021/03/31 08:35:33;;;;;;;1999.90;999.90;;;;;;;26.13;31.95;-18597.75;5019255;28;20242;-29
2021/03/31 08:38:26;;;;;;;1999.90;999.90;;;;;;;27.00;29.21;-18620.41;5018537;28;20633;-29
2021/03/31 08:41:21;;;;;;;1999.90;999.90;;;;;;;26.42;31.21;-18605.50;5019103;28;20268;-29
2021/03/31 08:44:21;;;;;;;1999.90;999.90;;;;;;;26.16;29.20;-18598.66;5027529;28;20238;-29
2021/03/31 08:47:12;;;;;;;1999.90;999.90;;;;;;;26.72;29.29;-18613.16;5019272;28;20621;-29
2021/03/31 08:50:03;;;;;;;1999.90;999.90;;;;;;;25.23;29.45;-18574.41;5029487;28;20201;-29
2021/03/31 08:52:58;;;;;;;1999.90;999.90;;;;;;;25.65;30.97;-18585.34;5038464;28;20194;-29
2021/03/31 08:55:48;;;;;;;1999.90;999.90;;;;;;;26.39;29.65;-18604.72;5039029;28;20201;-28
2021/03/31 08:58:43;;;;;;;1999.90;999.90;;;;;;;26.28;30.12;-18601.69;5039341;28;20189;-28
2021/03/31 09:01:35;;;;;;;1999.90;999.90;;;;;;;26.41;30.49;-18605.13;5039210;28;20196;-28
2021/03/31 09:04:25;;;;;;;1999.90;999.90;;;;;;;27.50;28.42;-18633.28;5038114;28;20201;-28
2021/03/31 09:07:14;;;;;;;1999.90;999.90;;;;;;;24.52;32.37;-18555.94;5038611;28;20205;-28
2021/03/31 09:10:03;;;;;;;1999.90;999.90;;;;;;;25.66;30.26;-18585.63;5038282;28;20225;-28
2021/03/31 09:12:49;;;;;;;1999.90;999.90;;;;;;;26.28;28.81;-18601.81;5038333;28;20311;-28
2021/03/31 09:15:36;;;;;;;1999.90;999.90;;;;;;;25.73;30.29;-18587.59;5038601;28;20556;-28
2021/03/31 09:18:23;;;;;;;1999.90;999.90;;;;;;;26.09;30.66;-18596.94;5038458;28;20201;-28
2021/03/31 09:21:12;;;;;;;1999.90;999.90;;;;;;;23.70;31.88;-18534.81;5038928;28;20621;-28
2021/03/31 09:24:12;;;;;;;1999.90;999.90;;;;;;;26.64;30.34;-18611.03;5037708;28;20199;-30
2021/03/31 09:27:00;;;;;;;1999.90;999.90;;;;;;;28.14;28.80;-18650.00;5038055;28;20616;-29
2021/03/31 09:29:52;;;;;;;1999.90;999.90;;;;;;;27.69;28.81;-18638.28;5036597;28;20259;-30
2021/03/31 09:32:50;;;;;;;1999.90;999.90;;;;;;;27.96;28.39;-18645.25;5037670;28;20294;-30
2021/03/31 09:35:48;;;;;;;1999.90;999.90;;;;;;;27.10;27.90;-18623.03;5038722;28;20233;-30
2021/03/31 09:38:41;;;;;;;1999.90;999.90;;;;;;;24.90;29.58;-18565.97;5037465;28;20363;-30
2021/03/31 09:41:31;;;;;;;1999.90;999.90;;;;;;;25.89;30.55;-18591.56;5037287;28;20299;-30
2021/03/31 09:44:21;;;;;;;1999.90;999.90;;;;;;;26.82;29.32;-18615.78;5037258;28;20197;-30
2021/03/31 09:47:12;;;;;;;1999.90;999.90;;;;;;;27.14;26.81;-18623.94;5039711;28;20291;-30
2021/03/31 09:50:26;;;;;;;1999.90;999.90;;;;;;;28.03;28.18;-18647.09;5042180;28;20272;-31
2021/03/31 09:53:35;;;;;;;1999.90;999.90;;;;;;;27.08;28.33;-18622.63;5041817;28;20216;-31
2021/03/31 09:56:31;;;;;;;1999.90;999.90;;;;;;;27.02;26.90;-18620.91;5037592;28;20291;-30
2021/03/31 09:59:26;;;;;;;1999.90;999.90;;;;;;;26.78;29.28;-18614.88;5039273;28;20213;-30
2021/03/31 10:02:12;;;;;;;1999.90;999.90;;;;;;;28.34;28.44;-18655.25;5037825;28;20292;-30
2021/03/31 10:05:04;;;;;;;1999.90;999.90;;;;;;;27.84;27.20;-18642.09;5037922;28;20626;-30
2021/03/31 10:07:57;;;;;;;1999.90;999.90;;;;;;;28.34;27.71;-18655.25;5036610;28;20319;-30
2021/03/31 10:10:44;;;;;;;1999.90;999.90;;;;;;;27.90;26.73;-18643.69;5037203;28;20201;-30
2021/03/31 10:13:35;;;;;;;1999.90;999.90;;;;;;;27.04;27.53;-18621.44;5037024;28;20205;-30
2021/03/31 10:16:32;;;;;;;1999.90;999.90;;;;;;;25.01;29.95;-18568.75;5036813;28;20743;-29
2021/03/31 10:19:26;;;;;;;1999.90;999.90;;;;;;;26.10;29.80;-18597.09;5036043;28;20209;-30
2021/03/31 10:22:17;;;;;;;1999.90;999.90;;;;;;;25.72;30.24;-18587.19;5017017;28;20486;-30
2021/03/31 10:25:24;;;;;;;1999.90;999.90;;;;;;;27.22;29.57;-18626.06;5017960;28;20217;-30
2021/03/31 10:28:39;;;;;;;1999.90;999.90;;;;;;;27.30;28.66;-18628.28;5017377;28;20364;-30
2021/03/31 10:31:45;;;;;;;1999.90;999.90;;;;;;;26.88;30.11;-18617.22;5024037;28;20241;-30
2021/03/31 10:34:38;;;;;;;1999.90;999.90;;;;;;;26.47;29.92;-18606.69;5034185;28;20268;-30
2021/03/31 10:37:34;;;;;;;1999.90;999.90;;;;;;;28.50;27.62;-18659.19;5031682;28;20242;-30
2021/03/31 10:40:50;;;;;;;1999.90;999.90;;;;;;;26.73;31.32;-18613.56;5026596;28;20202;-30
2021/03/31 10:47:07;;;;;;;1999.90;999.90;;;;;;;27.47;28.03;-18632.63;5017651;28;20321;-30
2021/03/31 10:49:54;;;;;;;1999.90;999.90;;;;;;;28.36;27.65;-18655.66;5017478;28;20218;-30
2021/03/31 10:52:46;;;;;;;1999.90;999.90;;;;;;;29.07;28.26;-18674.16;5016864;28;20300;-30
2021/03/31 10:55:36;;;;;;;1999.90;999.90;;;;;;;26.97;27.78;-18619.75;5017075;28;20321;-30
2021/03/31 10:58:27;;;;;;;1999.90;999.90;;;;;;;28.08;29.05;-18648.53;5016399;28;20221;-30
2021/03/31 11:01:27;;;;;;;1999.90;999.90;;;;;;;29.09;26.65;-18674.69;5019726;28;20217;-31
2021/03/31 11:04:21;;;;;;;1999.90;999.90;;;;;;;27.76;27.49;-18640.25;5035948;28;20281;-30
2021/03/31 11:07:08;;;;;;;1999.90;999.90;;;;;;;28.12;26.91;-18649.59;5036038;28;20217;-30
2021/03/31 11:09:55;;;;;;;1999.90;999.90;;;;;;;27.97;27.15;-18645.53;5038948;28;20545;-30
2021/03/31 11:13:06;;;;;;;1999.90;999.90;;;;;;;25.87;28.01;-18591.03;5037001;28;20209;-30
2021/03/31 11:16:01;;;;;;;1999.90;999.90;;;;;;;28.21;27.64;-18651.69;5036330;28;20204;-30
2021/03/31 11:18:59;;;;;;;1999.90;999.90;;;;;;;29.24;26.87;-18678.50;5023053;28;20201;-30
2021/03/31 11:25:32;;;;;;;1999.90;999.90;;;;;;;29.55;26.33;-18686.38;5036814;28;20271;-30
2021/03/31 11:28:19;;;;;;;1999.90;999.90;;;;;;;28.48;27.64;-18658.78;5034778;28;20293;-31
2021/03/31 11:31:15;;;;;;;1999.90;999.90;;;;;;;29.33;27.45;-18680.84;5037241;28;20201;-31
2021/03/31 11:34:03;;;;;;;1999.90;999.90;;;;;;;26.84;28.80;-18616.31;5035953;28;20210;-30
2021/03/31 11:36:53;;;;;;;1999.90;999.90;;;;;;;27.22;27.63;-18626.19;5035514;28;20340;-30
2021/03/31 11:39:39;;;;;;;1999.90;999.90;;;;;;;29.14;27.54;-18676.00;5035165;28;20197;-30
2021/03/31 11:42:26;;;;;;;1999.90;999.90;;;;;;;29.83;25.37;-18693.84;5034499;28;20280;-30
2021/03/31 11:45:16;;;;;;;1999.90;999.90;;;;;;;29.75;26.45;-18691.75;5035325;28;20606;-30
2021/03/31 11:48:10;;;;;;;1999.90;999.90;;;;;;;29.56;26.33;-18686.63;5036057;28;20660;-30
2021/03/31 11:51:12;;;;;;;1999.90;999.90;;;;;;;28.61;26.35;-18662.06;5035484;28;20260;-30
2021/03/31 11:54:04;;;;;;;1999.90;999.90;;;;;;;27.56;27.27;-18635.00;5034834;28;20220;-31
2021/03/31 11:56:53;;;;;;;1999.90;999.90;;;;;;;27.89;29.01;-18643.53;5035124;28;20222;-30
2021/03/31 11:59:41;;;;;;;1999.90;999.90;;;;;;;28.17;26.41;-18650.78;5035090;28;20341;-30
2021/03/31 12:02:30;;;;;;;1999.90;999.90;;;;;;;29.82;27.54;-18693.47;5035853;28;20192;-30
2021/03/31 12:05:17;;;;;;;1999.90;999.90;;;;;;;28.88;27.38;-18669.03;5035113;28;20206;-30
2021/03/31 12:08:04;;;;;;;1999.90;999.90;;;;;;;29.35;26.32;-18681.25;5035470;28;20249;-30
2021/03/31 12:10:51;;;;;;;1999.90;999.90;;;;;;;29.91;26.05;-18695.69;5036344;28;20425;-30
2021/03/31 12:13:37;;;;;;;1999.90;999.90;;;;;;;27.36;27.79;-18629.75;5039951;28;20205;-30
2021/03/31 12:16:24;;;;;;;1999.90;999.90;;;;;;;27.92;27.45;-18644.22;5037023;28;20205;-30
2021/03/31 12:19:09;;;;;;;1999.90;999.90;;;;;;;29.54;26.93;-18686.13;5035784;28;20299;-30
2021/03/31 12:21:58;;;;;;;1999.90;999.90;;;;;;;27.69;27.87;-18638.28;5038020;28;20198;-30
2021/03/31 12:24:51;;;;;;;1999.90;999.90;;;;;;;28.20;28.25;-18651.56;5035956;28;20288;-30
2021/03/31 12:27:42;;;;;;;1999.90;999.90;;;;;;;27.10;29.62;-18623.03;5039271;28;20205;-30
2021/03/31 12:30:30;;;;;;;1999.90;999.90;;;;;;;27.56;28.05;-18635.00;5039221;28;20217;-29
2021/03/31 12:33:20;;;;;;;1999.90;999.90;;;;;;;27.54;27.93;-18634.34;5043037;28;20201;-29
2021/03/31 12:36:11;;;;;;;1999.90;999.90;;;;;;;30.15;25.09;-18702.13;5040100;28;20368;-30
2021/03/31 12:38:58;;;;;;;1999.90;999.90;;;;;;;28.37;25.44;-18656.03;5039475;28;20493;-29